• Join FlightAware (Why Join?)
  • Login
  • US Flag 
Rudolph Flight #1: Arrived! 
08:07AM EST


 

Airport Tracker/Info


-or-


 

Live Flight TrackerFlight Track Log ✈ UCA4775 ✈ 24-Aug-2013 ✈ KFNT - KCLE

Flight Track Log - Related Links

Times and Time Zones

All times are in EDT time to prevent confusion due to time zone crossing. See the UCA4775 flight status page for this flight to view local times or setup timezone preferences in your user account.

Time Position Orientation Groundspeed Altitude Reporting Facility
EDT Latitude Longitude Course Direction KTS MPH feet Rate Location/Type
11:08AM 42.9078 -83.7850 45° Northeast 182 209 3,900  Level Cleveland Center
11:09AM 42.8886 -83.7231 113° Southeast 198 228 5,000 660 Climbing Cleveland Center
11:09AM 42.8886 -83.6669 90° East 230 265 5,000  Level Cleveland Center
11:10AM 42.8900 -83.5986 88° East 246 283 5,000  Level Cleveland Center
11:11AM 42.8919 -83.5325 88° East 241 277 5,000  Level Cleveland Center
11:12AM 42.6895 -83.3990 100° East  Level Estimated
11:12AM 42.8922 -83.4417 90° East 243 280 5,000  Level Cleveland Center
11:13AM 42.7335 -83.3389 45° Northeast  Level FlightAware Approximate
11:13AM 42.8928 -83.3442 90° East 243 280 5,000  Level Cleveland Center
11:14AM 42.8928 -83.2514 90° East 244 281 5,000  Level Cleveland Center
11:15AM 42.8914 -83.1542 91° East 241 277 5,100  Climbing Cleveland Center
11:16AM 42.8356 -83.1075 148° Southeast 246 283 5,000 -60 Descending Cleveland Center
11:17AM 42.7644 -83.0736 161° South 253 291 5,000  Level Cleveland Center
11:18AM 42.6878 -83.0381 161° South 249 287 5,000  Level Cleveland Center
11:19AM 42.6319 -83.0089 159° South 256 295 5,000  Level Cleveland Center
11:20AM 42.5664 -82.9778 161° South 251 289 5,000  Level Cleveland Center
11:21AM 42.5044 -82.9386 155° Southeast 249 287 5,000 240 Level Cleveland Center
11:22AM 42.4542 -82.8769 138° Southeast 246 283 5,600 780 Climbing Cleveland Center
11:23AM 42.4069 -82.8236 140° Southeast 227 261 6,600 660 Climbing Cleveland Center
11:24AM 42.3617 -82.7733 141° Southeast 213 245 7,000 180 Climbing Cleveland Center
11:25AM 42.2997 -82.7031 140° Southeast 235 270 7,000  Level Cleveland Center
11:26AM 42.2461 -82.6419 140° Southeast 248 285 7,000  Level Cleveland Center
11:27AM 42.1922 -82.5806 140° Southeast 252 290 7,000  Level Cleveland Center
11:28AM 42.1375 -82.5211 141° Southeast 254 292 7,000  Level Cleveland Center
11:29AM 42.0828 -82.4603 140° Southeast 254 292 7,000  Level Cleveland Center
11:30AM 42.0261 -82.4000 142° Southeast 254 292 7,000  Level Cleveland Center
11:31AM 41.9739 -82.3394 139° Southeast 254 292 7,000  Level Cleveland Center
11:32AM 41.9183 -82.2772 140° Southeast 254 292 7,000  Level Cleveland Center
11:33AM 41.8631 -82.2172 141° Southeast 255 293 7,000  Level Cleveland Center
11:34AM 41.8014 -82.1589 145° Southeast 256 295 7,000  Level Cleveland Center
11:35AM 41.7353 -82.1028 148° Southeast 256 295 7,000  Level Cleveland Center
11:37AM 41.6733 -82.0483 147° Southeast 256 295 7,000  Level Cleveland Center
11:38AM 41.6106 -81.9981 149° Southeast 255 293 7,000  Level Cleveland Center
11:39AM 41.5517 -81.9450 146° Southeast 257 296 7,000  Level Cleveland Center
11:40AM 41.4872 -81.9114 159° South 268 308 7,000 -300 Level Cleveland Center
11:41AM 41.4256 -81.9786 219° Southwest 264 304 6,400 -840 Descending Cleveland Center
11:42AM 41.3808 -82.0519 231° Southwest 257 296 5,400 -1,020 Descending Cleveland Center
11:43AM 41.3278 -82.0678 193° South 230 265 4,300 -1,020 Descending Cleveland Center
11:44AM 41.3167 -82.0192 107° East 182 209 3,500 -1,020 Descending Cleveland Center
11:45AM 41.3428 -81.9650 57° Northeast 165 190 2,500 -840 Descending Cleveland Center
11:46AM 41.3719 -81.9133 53° Northeast 153 176 1,600 -720 Descending Cleveland Center
11:47AM 41.3897 -81.8889 46° Northeast 124 143 1,100 -720 Descending Cleveland Center